createdAt,value
2024-04-12T00:00:23.111Z,72.73
2024-04-12T00:03:09.953Z,73.50
2024-04-12T00:05:56.126Z,73.70
2024-04-12T00:08:52.208Z,73.86
2024-04-12T00:11:40.784Z,73.88
2024-04-12T00:14:26.550Z,74.26
2024-04-12T00:17:17.508Z,74.16
2024-04-12T00:20:05.928Z,74.26
2024-04-12T00:22:56.910Z,74.16
2024-04-12T00:25:43.098Z,73.88
2024-04-12T00:28:32.895Z,73.79
2024-04-12T00:31:18.029Z,73.76
2024-04-12T00:34:05.968Z,74.42
2024-04-12T00:36:51.739Z,74.08
2024-04-12T00:39:40.506Z,74.18
2024-04-12T00:42:33.680Z,74.20
2024-04-12T00:45:39.893Z,74.35
2024-04-12T00:48:27.802Z,74.53
2024-04-12T00:51:18.723Z,74.57
2024-04-12T00:54:08.747Z,74.78
2024-04-12T00:56:58.028Z,74.83
2024-04-12T00:59:43.733Z,75.03
2024-04-12T01:02:28.933Z,75.13
2024-04-12T01:05:18.220Z,75.39
2024-04-12T01:08:07.428Z,75.48
2024-04-12T01:10:54.190Z,75.91
2024-04-12T01:13:40.292Z,76.16
2024-04-12T01:16:25.681Z,76.04
2024-04-12T01:19:13.678Z,76.24
2024-04-12T01:22:01.354Z,76.24
2024-04-12T01:24:46.864Z,76.12
2024-04-12T01:27:35.657Z,76.08
2024-04-12T01:30:21.461Z,76.32
2024-04-12T01:33:09.753Z,76.16
2024-04-12T01:35:56.658Z,75.82
2024-04-12T01:38:43.062Z,75.70
2024-04-12T01:41:33.276Z,75.73
2024-04-12T01:44:25.401Z,75.47
2024-04-12T01:47:15.563Z,75.55
2024-04-12T01:50:02.741Z,75.88
2024-04-12T01:52:58.727Z,75.66
2024-04-12T01:55:47.210Z,75.49
2024-04-12T01:58:35.641Z,75.58
2024-04-12T02:01:23.096Z,75.69
2024-04-12T02:04:08.890Z,75.69
2024-04-12T02:06:54.593Z,75.69
2024-04-12T02:09:41.405Z,75.90
2024-04-12T02:12:29.974Z,75.90
2024-04-12T02:15:21.457Z,76.01
2024-04-12T02:18:06.897Z,75.85
2024-04-12T02:20:54.478Z,76.17
2024-04-12T02:23:42.101Z,76.07
2024-04-12T02:26:27.747Z,76.13
2024-04-12T02:29:13.021Z,76.35
2024-04-12T02:31:59.159Z,76.43
2024-04-12T02:34:49.519Z,76.28
2024-04-12T02:37:36.097Z,76.39
2024-04-12T02:40:21.915Z,76.45
2024-04-12T02:43:07.468Z,76.64
2024-04-12T02:45:58.423Z,76.40
2024-04-12T02:48:48.488Z,76.56
2024-04-12T02:51:34.427Z,76.56
2024-04-12T02:54:22.019Z,76.70
2024-04-12T02:57:08.729Z,76.58
2024-04-12T02:59:54.335Z,76.72
2024-04-12T03:02:40.277Z,76.91
2024-04-12T03:05:25.836Z,76.84
2024-04-12T03:08:19.396Z,77.02
2024-04-12T03:11:15.599Z,76.72
2024-04-12T03:14:16.393Z,76.88
2024-04-12T03:17:05.520Z,77.01
2024-04-12T03:19:51.128Z,77.17
2024-04-12T03:22:36.575Z,76.93
2024-04-12T03:25:23.417Z,77.00
2024-04-12T03:28:10.082Z,77.02
2024-04-12T03:30:56.299Z,77.01
2024-04-12T03:33:45.356Z,76.83
2024-04-12T03:36:33.543Z,76.74
2024-04-12T03:39:23.665Z,76.66
2024-04-12T03:42:13.066Z,76.91
2024-04-12T03:44:59.343Z,77.08
2024-04-12T03:47:51.648Z,77.18
2024-04-12T03:50:37.437Z,77.30
2024-04-12T03:53:30.041Z,77.36
2024-04-12T03:56:15.286Z,77.70
2024-04-12T03:59:02.114Z,77.70
2024-04-12T04:01:49.147Z,77.76
2024-04-12T04:04:39.308Z,77.80
2024-04-12T04:07:25.101Z,77.68
2024-04-12T04:10:14.636Z,78.16
2024-04-12T04:13:05.129Z,77.96
2024-04-12T04:15:52.000Z,77.83
2024-04-12T04:18:37.727Z,78.18
2024-04-12T04:21:25.801Z,78.06
2024-04-12T04:24:11.426Z,77.77
2024-04-12T04:26:58.177Z,78.16
2024-04-12T04:29:45.386Z,78.10
2024-04-12T04:32:31.235Z,78.32
2024-04-12T04:35:16.666Z,78.23
2024-04-12T04:38:02.363Z,78.35
2024-04-12T04:40:47.624Z,78.11
2024-04-12T04:43:37.049Z,78.10
2024-04-12T04:46:28.570Z,78.08
2024-04-12T04:49:15.172Z,78.08
2024-04-12T04:52:03.011Z,77.97
2024-04-12T04:54:49.167Z,77.63
2024-04-12T04:57:44.613Z,77.61
2024-04-12T05:00:41.959Z,77.42
2024-04-12T05:03:27.338Z,77.40
2024-04-12T05:06:13.860Z,77.27
2024-04-12T05:09:02.435Z,77.37
2024-04-12T05:11:53.795Z,77.24
2024-04-12T05:14:39.795Z,76.93
2024-04-12T05:17:25.512Z,77.04
2024-04-12T05:20:21.321Z,76.97
2024-04-12T05:23:09.655Z,76.98
2024-04-12T05:25:55.831Z,76.80
2024-04-12T05:28:43.664Z,76.69
2024-04-12T05:31:31.527Z,76.58
2024-04-12T05:34:20.066Z,76.38
2024-04-12T05:37:05.379Z,76.25
2024-04-12T05:39:58.135Z,76.15
2024-04-12T05:42:43.370Z,76.28
2024-04-12T05:45:28.943Z,76.42
2024-04-12T05:48:15.694Z,76.45
2024-04-12T05:51:03.311Z,76.42
2024-04-12T05:53:52.658Z,76.61
2024-04-12T05:56:40.920Z,76.71
2024-04-12T05:59:26.707Z,76.73
2024-04-12T06:02:16.756Z,76.60
2024-04-12T06:05:06.182Z,76.85
2024-04-12T06:07:51.400Z,76.49
2024-04-12T06:10:39.053Z,76.40
2024-04-12T06:13:25.464Z,76.31
2024-04-12T06:16:12.937Z,76.07
2024-04-12T06:19:00.037Z,75.97
2024-04-12T06:21:50.057Z,75.80
2024-04-12T06:24:38.631Z,75.88
2024-04-12T06:27:31.386Z,75.96
2024-04-12T06:30:19.058Z,75.71
2024-04-12T06:33:07.428Z,75.62
2024-04-12T06:36:06.666Z,75.82
2024-04-12T06:38:54.128Z,75.73
2024-04-12T06:41:39.384Z,76.00
2024-04-12T06:44:26.139Z,76.29
2024-04-12T06:47:13.357Z,76.23
2024-04-12T06:50:09.356Z,76.23
2024-04-12T06:52:55.472Z,76.51
2024-04-12T06:55:47.537Z,76.45
2024-04-12T06:58:39.491Z,76.58
2024-04-12T07:01:27.029Z,75.96
2024-04-12T07:04:12.520Z,76.13
2024-04-12T07:06:58.145Z,75.99
2024-04-12T07:09:47.033Z,75.86
2024-04-12T07:12:33.339Z,75.63
2024-04-12T07:15:22.604Z,75.50
2024-04-12T07:18:12.297Z,75.15
2024-04-12T07:21:16.329Z,74.88
2024-04-12T07:24:02.138Z,74.97
2024-04-12T07:26:48.625Z,74.88
2024-04-12T07:29:35.033Z,75.09
2024-04-12T07:32:23.723Z,74.59
2024-04-12T07:35:27.538Z,74.94
2024-04-12T07:38:13.908Z,74.84
2024-04-12T07:40:59.419Z,74.90
2024-04-12T07:43:44.986Z,74.48
2024-04-12T07:46:34.984Z,74.19
2024-04-12T07:49:21.112Z,73.27
2024-04-12T07:52:11.114Z,71.36
2024-04-12T07:54:56.585Z,71.31
2024-04-12T07:57:51.401Z,71.13
2024-04-12T08:00:49.232Z,70.36
2024-04-12T08:03:38.046Z,69.64
2024-04-12T08:06:59.796Z,69.29
2024-04-12T08:09:54.186Z,68.08
2024-04-12T08:12:40.034Z,68.09
2024-04-12T08:15:25.554Z,67.67
2024-04-12T08:18:12.819Z,67.90
2024-04-12T08:21:03.604Z,67.83
2024-04-12T08:23:52.512Z,67.60
2024-04-12T08:26:39.065Z,67.27
2024-04-12T08:29:24.923Z,67.87
2024-04-12T08:32:10.757Z,67.97
2024-04-12T08:34:59.213Z,68.39
2024-04-12T08:37:45.422Z,68.29
2024-04-12T08:40:38.630Z,68.77
2024-04-12T08:43:42.939Z,69.08
2024-04-12T08:46:34.681Z,69.42
2024-04-12T08:49:21.936Z,69.44
2024-04-12T08:52:25.926Z,69.37
2024-04-12T08:55:18.472Z,69.46
2024-04-12T08:58:08.263Z,69.77
2024-04-12T09:00:56.466Z,69.09
2024-04-12T09:03:46.801Z,68.78
2024-04-12T09:06:36.233Z,69.17
2024-04-12T09:09:23.860Z,68.42
2024-04-12T09:12:15.288Z,68.24
2024-04-12T09:15:01.261Z,67.87
2024-04-12T09:17:49.315Z,68.33
2024-04-12T09:20:40.022Z,68.98
2024-04-12T09:23:34.943Z,69.26
2024-04-12T09:26:24.561Z,69.35
2024-04-12T09:29:12.752Z,69.71
2024-04-12T09:32:17.560Z,69.65
2024-04-12T09:35:05.940Z,69.18
2024-04-12T09:38:02.796Z,69.11
2024-04-12T09:40:56.747Z,68.91
2024-04-12T09:43:48.717Z,69.16
2024-04-12T09:47:08.600Z,68.94
2024-04-12T09:50:14.138Z,68.79
2024-04-12T09:53:20.113Z,68.25
2024-04-12T09:56:31.846Z,67.55
2024-04-12T09:59:46.659Z,67.30
2024-04-12T10:02:51.666Z,66.88
2024-04-12T10:05:58.720Z,66.57
2024-04-12T10:09:03.126Z,65.83
2024-04-12T10:12:09.632Z,65.76
2024-04-12T10:15:16.515Z,64.77
2024-04-12T10:18:33.005Z,64.47
2024-04-12T10:21:37.144Z,63.96
2024-04-12T10:24:46.494Z,63.36
2024-04-12T10:27:50.550Z,63.48
2024-04-12T10:31:05.058Z,63.72
2024-04-12T10:34:09.124Z,63.08
2024-04-12T10:37:14.092Z,62.83
2024-04-12T10:39:59.947Z,62.77
2024-04-12T10:42:48.183Z,61.90
2024-04-12T10:45:37.875Z,61.77
2024-04-12T10:48:23.348Z,61.73
2024-04-12T10:51:13.067Z,61.96
2024-04-12T10:54:00.518Z,62.30
2024-04-12T10:56:46.878Z,62.12
2024-04-12T10:59:36.335Z,62.04
2024-04-12T11:02:23.354Z,62.10
2024-04-12T11:05:20.793Z,61.97
2024-04-12T11:08:17.220Z,61.01
2024-04-12T11:11:20.352Z,60.28
2024-04-12T11:14:16.767Z,58.97
2024-04-12T11:17:21.289Z,58.11
2024-04-12T11:20:25.139Z,58.75
2024-04-12T11:23:29.128Z,58.42
2024-04-12T11:26:36.686Z,57.87
2024-04-12T11:29:40.640Z,58.09
2024-04-12T11:32:26.707Z,58.33
2024-04-12T11:35:12.926Z,58.33
2024-04-12T11:37:59.189Z,58.31
2024-04-12T11:40:46.765Z,58.19
2024-04-12T11:43:33.807Z,58.09
2024-04-12T11:46:20.675Z,57.32
2024-04-12T11:49:09.063Z,56.98
2024-04-12T11:52:03.687Z,56.65
2024-04-12T11:54:54.544Z,55.65
2024-04-12T11:57:42.654Z,55.47
2024-04-12T12:00:28.596Z,54.26
2024-04-12T12:03:17.855Z,54.08
2024-04-12T12:06:07.698Z,52.75
2024-04-12T12:08:58.664Z,53.17
2024-04-12T12:11:44.693Z,53.51
2024-04-12T12:14:30.444Z,53.56
2024-04-12T12:17:20.063Z,53.36
2024-04-12T12:20:07.193Z,53.79
2024-04-12T12:22:52.957Z,53.63
2024-04-12T12:25:39.855Z,53.27
2024-04-12T12:28:27.971Z,53.15
2024-04-12T12:31:14.617Z,53.08
2024-04-12T12:34:00.880Z,53.08
2024-04-12T12:36:46.282Z,52.28
2024-04-12T12:39:32.803Z,52.44
2024-04-12T12:42:18.477Z,52.57
2024-04-12T12:45:04.739Z,52.73
2024-04-12T12:47:50.646Z,53.08
2024-04-12T12:50:35.843Z,52.75
2024-04-12T12:53:23.636Z,52.11
2024-04-12T12:56:09.160Z,52.16
2024-04-12T12:58:54.636Z,52.01
2024-04-12T13:01:43.100Z,52.27
2024-04-12T13:04:29.638Z,52.00
2024-04-12T13:07:18.573Z,51.76
2024-04-12T13:10:07.217Z,50.79
2024-04-12T13:12:55.957Z,50.85
2024-04-12T13:15:41.536Z,50.41
2024-04-12T13:18:32.931Z,51.47
2024-04-12T13:21:19.853Z,50.95
2024-04-12T13:24:08.914Z,51.74
2024-04-12T13:26:56.169Z,51.93
2024-04-12T13:29:45.859Z,51.36
2024-04-12T13:32:31.179Z,51.19
2024-04-12T13:35:18.144Z,50.99
2024-04-12T13:38:04.957Z,51.33
2024-04-12T13:40:55.985Z,51.26
2024-04-12T13:43:41.130Z,51.39
2024-04-12T13:46:46.599Z,51.22
2024-04-12T13:49:56.196Z,50.62
2024-04-12T13:52:45.328Z,50.57
2024-04-12T13:55:33.681Z,49.93
2024-04-12T13:58:21.512Z,50.22
2024-04-12T14:01:07.740Z,50.34
2024-04-12T14:04:00.244Z,49.90
2024-04-12T14:06:49.961Z,50.61
2024-04-12T14:09:35.351Z,50.18
2024-04-12T14:12:20.910Z,50.28
2024-04-12T14:15:06.968Z,50.14
2024-04-12T14:17:53.418Z,49.47
2024-04-12T14:20:39.150Z,49.58
2024-04-12T14:23:25.591Z,49.82
2024-04-12T14:26:12.087Z,49.93
2024-04-12T14:29:01.733Z,50.22
2024-04-12T14:31:47.067Z,49.63
2024-04-12T14:34:36.936Z,50.31
2024-04-12T14:37:22.999Z,51.00
2024-04-12T14:40:08.994Z,51.39
2024-04-12T14:42:54.428Z,53.55
2024-04-12T14:45:39.701Z,53.83
2024-04-12T14:48:25.390Z,51.45
2024-04-12T14:51:11.085Z,53.97
2024-04-12T14:53:56.688Z,53.82
2024-04-12T14:56:46.138Z,52.72
2024-04-12T14:59:35.683Z,56.20
2024-04-12T15:02:21.283Z,52.09
2024-04-12T15:05:25.231Z,52.57
2024-04-12T15:08:32.593Z,54.68
2024-04-12T15:11:37.741Z,57.46
2024-04-12T15:14:41.598Z,53.49
2024-04-12T15:17:45.525Z,56.53
2024-04-12T15:20:49.376Z,55.49
2024-04-12T15:23:53.297Z,53.35
2024-04-12T15:26:57.162Z,54.40
2024-04-12T15:30:01.283Z,53.83
2024-04-12T15:33:05.701Z,53.73
2024-04-12T15:36:10.248Z,55.26
2024-04-12T15:39:14.351Z,56.67
2024-04-12T15:42:18.595Z,54.91
2024-04-12T15:45:22.691Z,56.02
2024-04-12T15:48:13.249Z,55.59
2024-04-12T15:50:58.772Z,55.76
2024-04-12T15:53:46.893Z,56.31
2024-04-12T15:56:32.950Z,56.03
2024-04-12T15:59:37.114Z,55.62
2024-04-12T16:02:41.225Z,55.74
2024-04-12T16:05:45.240Z,56.64
2024-04-12T16:08:49.238Z,56.00
2024-04-12T16:11:34.986Z,56.65
2024-04-12T16:14:20.567Z,56.92
2024-04-12T16:17:06.229Z,54.99
2024-04-12T16:19:53.745Z,57.12
2024-04-12T16:22:39.829Z,54.91
2024-04-12T16:25:25.453Z,54.87
2024-04-12T16:28:12.152Z,54.60
2024-04-12T16:30:59.989Z,54.95
2024-04-12T16:33:46.860Z,55.07
2024-04-12T16:36:33.115Z,55.21
2024-04-12T16:39:18.837Z,54.97
2024-04-12T16:42:04.500Z,55.03
2024-04-12T16:44:49.799Z,55.43
